Time;durP1;ratioP1;P1;durP2;ratioP2;P2;SDS_P1;SDS_P2;PMS_P1;PMS_P2;Temp;Humidity;BMP_temperature;BMP_pressure;BME280_temperature;BME280_humidity;BME280_pressure;Samples;Min_cycle;Max_cycle;Signal;HPM_P1;HPM_P2
2021/12/10 00:00:07;;;;;;;13.35;7.72;;;;;;;-0.71;100.00;94637.13;1030833;28;20250;-71
2021/12/10 00:00:49;;;;;;;10.92;8.02;;;;;;;-0.77;100.00;94625.13;1030293;28;20022;-73
2021/12/10 00:01:26;;;;;;;14.48;7.52;;;;;;;-0.79;100.00;94621.97;1026691;28;20023;-71
2021/12/10 00:02:03;;;;;;;14.84;8.64;;;;;;;-0.77;100.00;94621.75;1026728;28;20081;-71
2021/12/10 00:02:35;;;;;;;11.50;7.10;;;;;;;-0.72;100.00;94629.63;1018608;29;20020;-71
2021/12/10 00:03:08;;;;;;;12.60;6.52;;;;;;;-0.73;100.00;94631.41;1030806;28;20599;-70
2021/12/10 00:03:41;;;;;;;11.76;7.16;;;;;;;-0.73;100.00;94633.22;1026859;28;20085;-71
2021/12/10 00:04:12;;;;;;;12.04;7.54;;;;;;;-0.73;100.00;94626.25;1030352;28;20121;-71
2021/12/10 00:04:43;;;;;;;10.95;6.53;;;;;;;-0.71;100.00;94620.88;1029196;28;20129;-72
2021/12/10 00:05:15;;;;;;;11.77;7.22;;;;;;;-0.79;100.00;94613.47;1024479;28;20031;-72
2021/12/10 00:05:54;;;;;;;12.42;8.14;;;;;;;-0.73;100.00;94625.47;1030488;28;20011;-71
2021/12/10 00:06:29;;;;;;;12.02;7.46;;;;;;;-0.73;100.00;94628.84;1022523;28;20054;-71
2021/12/10 00:07:03;;;;;;;12.12;6.78;;;;;;;-0.72;100.00;94620.09;1022637;29;20062;-72
2021/12/10 00:07:33;;;;;;;14.42;7.04;;;;;;;-0.73;100.00;94621.13;1026582;28;20175;-71
2021/12/10 00:08:04;;;;;;;11.50;6.82;;;;;;;-0.76;100.00;94621.53;1026794;28;20401;-70
2021/12/10 00:08:35;;;;;;;12.42;6.82;;;;;;;-0.74;100.00;94616.16;1022341;28;20102;-71
2021/12/10 00:09:10;;;;;;;12.25;7.13;;;;;;;-0.78;100.00;94615.81;1022433;28;20043;-73
2021/12/10 00:09:44;;;;;;;11.78;6.70;;;;;;;-0.79;100.00;94608.31;1027366;28;20018;-71
2021/12/10 00:10:18;;;;;;;10.84;6.88;;;;;;;-0.79;100.00;94614.25;1031565;28;20591;-73
2021/12/10 00:10:52;;;;;;;13.48;6.88;;;;;;;-0.76;100.00;94616.41;1026512;28;20027;-72
2021/12/10 00:11:45;;;;;;;11.16;7.06;;;;;;;-0.76;100.00;94610.47;1022870;29;20851;-74
2021/12/10 00:12:20;;;;;;;15.48;7.48;;;;;;;-0.81;100.00;94600.81;1026880;28;20023;-71
2021/12/10 00:12:51;;;;;;;14.46;7.84;;;;;;;-0.80;100.00;94601.63;1034442;28;20036;-69
2021/12/10 00:13:22;;;;;;;13.07;6.70;;;;;;;-0.81;100.00;94600.81;1030975;28;20046;-72
2021/12/10 00:13:52;;;;;;;11.68;6.88;;;;;;;-0.81;100.00;94605.19;1029601;28;20022;-71
2021/12/10 00:14:29;;;;;;;14.20;7.13;;;;;;;-0.80;100.00;94601.63;1029467;28;20022;-72
2021/12/10 00:15:02;;;;;;;11.48;6.70;;;;;;;-0.81;100.00;94595.66;1026478;28;20027;-69
2021/12/10 00:15:33;;;;;;;14.22;6.70;;;;;;;-0.80;100.00;94597.25;1026534;28;20074;-72
2021/12/10 00:16:03;;;;;;;8.68;6.18;;;;;;;-0.94;100.00;94570.09;1020033;29;20163;-72
2021/12/10 00:16:34;;;;;;;12.18;6.75;;;;;;;-0.80;100.00;94596.47;1022742;29;20031;-72
2021/12/10 00:17:07;;;;;;;10.60;5.94;;;;;;;-0.84;100.00;94585.81;1022454;29;20035;-72
2021/12/10 00:17:37;;;;;;;12.52;5.84;;;;;;;-0.89;100.00;94580.53;1022870;29;20022;-73
2021/12/10 00:18:09;;;;;;;10.32;6.60;;;;;;;-0.83;100.00;94602.84;1034942;28;20026;-72
2021/12/10 00:18:45;;;;;;;12.88;6.78;;;;;;;-0.85;100.00;94597.09;1033371;28;20156;-72
2021/12/10 00:19:56;;;;;;;15.20;6.42;;;;;;;-0.86;100.00;94592.97;1030953;28;20010;-71
2021/12/10 00:20:27;;;;;;;12.56;6.20;;;;;;;-0.93;100.00;94586.34;1030619;28;20029;-71
2021/12/10 00:21:00;;;;;;;10.86;6.62;;;;;;;-0.88;100.00;94589.03;1018703;29;20051;-73
2021/12/10 00:21:31;;;;;;;12.50;6.54;;;;;;;-0.89;100.00;94597.78;1021918;28;20622;-72
2021/12/10 00:22:06;;;;;;;9.18;6.13;;;;;;;-0.97;100.00;94575.72;1026800;28;20074;-71
2021/12/10 00:22:49;;;;;;;11.94;6.40;;;;;;;-0.92;100.00;94593.84;1029898;28;20057;-71
2021/12/10 00:23:19;;;;;;;11.70;6.38;;;;;;;-0.97;100.00;94579.06;1030394;28;20022;-71
2021/12/10 00:23:51;;;;;;;10.70;6.07;;;;;;;-0.94;100.00;94588.13;1018312;29;20035;-71
2021/12/10 00:24:26;;;;;;;12.06;6.32;;;;;;;-0.95;100.00;94583.97;1018908;29;20024;-71
2021/12/10 00:24:57;;;;;;;12.24;6.00;;;;;;;-1.00;100.00;94576.13;1025873;28;20177;-70
2021/12/10 00:25:34;;;;;;;12.60;5.85;;;;;;;-1.24;100.00;94555.47;1030663;28;20088;-71
2021/12/10 00:26:05;;;;;;;13.30;6.64;;;;;;;-1.06;100.00;94579.59;1026806;28;20042;-72
2021/12/10 00:26:36;;;;;;;9.55;5.68;;;;;;;-1.05;100.00;94576.00;1026436;28;20513;-72
2021/12/10 00:27:08;;;;;;;18.06;7.20;;;;;;;-1.02;100.00;94578.91;1022755;29;20453;-71
2021/12/10 00:27:39;;;;;;;10.74;6.12;;;;;;;-1.02;100.00;94583.28;1030697;28;20377;-71
2021/12/10 00:28:18;;;;;;;14.68;6.60;;;;;;;-1.06;100.00;94577.78;1026836;28;20541;-71
2021/12/10 00:28:49;;;;;;;10.48;5.82;;;;;;;-1.06;100.00;94579.59;1026740;28;20023;-72
2021/12/10 00:29:20;;;;;;;11.23;5.47;;;;;;;-1.15;100.00;94565.44;1026014;28;20102;-71
2021/12/10 00:29:50;;;;;;;14.30;5.97;;;;;;;-1.11;100.00;94576.88;1030571;28;20292;-72
2021/12/10 00:30:27;;;;;;;12.25;6.20;;;;;;;-1.11;100.00;94572.50;1026798;28;20531;-73
2021/12/10 00:32:01;;;;;;;10.52;6.20;;;;;;;-1.14;100.00;94569.56;1022605;28;20421;-72
2021/12/10 00:32:33;;;;;;;10.06;5.76;;;;;;;-1.13;100.00;94569.38;1027245;28;20485;-72
2021/12/10 00:33:13;;;;;;;14.36;5.70;;;;;;;-1.16;100.00;94571.59;1031310;28;20302;-71
2021/12/10 00:33:54;;;;;;;15.43;6.30;;;;;;;-1.17;100.00;94568.25;1030676;28;20194;-71
2021/12/10 00:34:36;;;;;;;11.20;6.00;;;;;;;-1.18;100.00;94569.22;1030093;28;20037;-71
2021/12/10 00:35:10;;;;;;;10.38;6.36;;;;;;;-1.20;100.00;94566.88;1031073;28;20033;-72
2021/12/10 00:35:41;;;;;;;11.32;6.12;;;;;;;-1.27;100.00;94566.19;1029296;28;20026;-72
2021/12/10 00:36:12;;;;;;;13.18;6.47;;;;;;;-1.22;100.00;94565.53;1022725;29;20035;-72
2021/12/10 00:36:43;;;;;;;10.76;5.62;;;;;;;-1.22;100.00;94562.94;1021140;28;20666;-74
2021/12/10 00:37:15;;;;;;;13.13;5.53;;;;;;;-1.24;100.00;94567.53;1026750;28;20018;-72
2021/12/10 00:37:45;;;;;;;11.70;5.76;;;;;;;-1.34;100.00;94555.19;1030846;28;20262;-71
2021/12/10 00:38:16;;;;;;;10.55;6.07;;;;;;;-1.33;100.00;94555.97;1023001;28;20454;-72
2021/12/10 00:38:46;;;;;;;10.07;5.78;;;;;;;-1.33;100.00;94554.19;1022527;29;20019;-72
2021/12/10 00:39:30;;;;;;;11.88;5.75;;;;;;;-1.30;100.00;94564.06;1026839;28;20488;-72
2021/12/10 00:40:02;;;;;;;12.66;5.54;;;;;;;-1.29;100.00;94572.56;1019915;29;20055;-73
2021/12/10 00:40:32;;;;;;;13.92;5.70;;;;;;;-1.30;100.00;94568.41;1026561;28;20029;-73
2021/12/10 00:41:03;;;;;;;14.10;6.20;;;;;;;-1.33;100.00;94567.06;1026662;28;20030;-74
2021/12/10 00:41:34;;;;;;;12.88;5.46;;;;;;;-1.35;100.00;94563.91;1021693;29;20050;-71
2021/12/10 00:42:16;;;;;;;13.05;6.13;;;;;;;-1.34;100.00;94569.81;1025791;28;20028;-72
2021/12/10 00:42:47;;;;;;;11.92;5.12;;;;;;;-1.34;100.00;94570.63;1030699;28;20018;-72
2021/12/10 00:43:17;;;;;;;9.93;5.05;;;;;;;-1.40;100.00;94556.06;1030786;28;20034;-72
2021/12/10 00:43:48;;;;;;;11.50;5.80;;;;;;;-1.36;100.00;94564.91;1028634;28;20439;-72
2021/12/10 00:44:21;;;;;;;8.52;5.20;;;;;;;-1.34;100.00;94568.06;1026897;28;20106;-72
2021/12/10 00:44:52;;;;;;;9.76;5.76;;;;;;;-1.38;100.00;94559.19;1029981;28;20026;-72
2021/12/10 00:45:23;;;;;;;9.88;5.48;;;;;;;-1.38;100.00;94556.63;1030021;28;20180;-73
2021/12/10 00:45:54;;;;;;;13.07;5.82;;;;;;;-1.35;100.00;94561.31;1030659;28;20018;-72
2021/12/10 00:46:24;;;;;;;11.30;5.47;;;;;;;-1.40;100.00;94553.50;1026536;28;20011;-71
2021/12/10 00:46:54;;;;;;;14.18;5.93;;;;;;;-1.37;100.00;94565.94;1022358;29;20035;-73
2021/12/10 00:47:25;;;;;;;20.05;6.57;;;;;;;-1.35;100.00;94570.84;1026884;28;20015;-72
2021/12/10 00:47:55;;;;;;;11.35;5.10;;;;;;;-1.37;100.00;94562.56;1026849;28;20027;-72
2021/12/10 00:48:26;;;;;;;7.80;5.00;;;;;;;-1.45;100.00;94551.56;1030379;28;20034;-72
2021/12/10 00:48:57;;;;;;;13.88;5.40;;;;;;;-1.44;100.00;94547.22;1030588;28;20023;-71
2021/12/10 00:49:27;;;;;;;13.88;5.32;;;;;;;-1.35;100.00;94558.75;1018638;29;20024;-71
2021/12/10 00:49:58;;;;;;;9.85;5.28;;;;;;;-1.42;100.00;94543.41;1018995;29;20032;-73
2021/12/10 00:50:31;;;;;;;11.70;5.68;;;;;;;-1.40;100.00;94552.72;1026034;28;20241;-72
2021/12/10 00:51:06;;;;;;;8.72;5.12;;;;;;;-1.45;100.00;94543.06;1022774;29;20082;-71
2021/12/10 00:51:40;;;;;;;8.92;5.32;;;;;;;-1.35;100.00;94552.84;1026681;28;20068;-71
2021/12/10 00:52:11;;;;;;;11.70;5.18;;;;;;;-1.40;100.00;94545.78;1023881;28;20484;-72
2021/12/10 00:52:42;;;;;;;9.86;5.26;;;;;;;-1.44;100.00;94542.06;1026412;28;20095;-72
2021/12/10 00:53:14;;;;;;;8.90;4.96;;;;;;;-1.37;100.00;94552.28;1026674;28;20118;-72
2021/12/10 00:53:45;;;;;;;11.76;5.24;;;;;;;-1.38;100.00;94548.91;1028709;28;20052;-72
2021/12/10 00:54:15;;;;;;;10.77;5.30;;;;;;;-1.58;100.00;94517.50;1031111;28;20022;-72
2021/12/10 00:54:46;;;;;;;12.73;5.15;;;;;;;-1.41;100.00;94544.19;1029792;28;20527;-74
2021/12/10 00:55:16;;;;;;;9.77;5.22;;;;;;;-1.42;100.00;94532.34;1023501;28;20054;-72
2021/12/10 00:55:47;;;;;;;10.73;6.45;;;;;;;-1.46;100.00;94537.13;1026632;28;20126;-72
2021/12/10 00:56:17;;;;;;;12.50;4.88;;;;;;;-1.37;100.00;94542.78;1026771;28;20030;-71
2021/12/10 00:56:48;;;;;;;9.75;5.05;;;;;;;-1.39;100.00;94536.25;1024615;28;20092;-72
2021/12/10 00:57:18;;;;;;;10.68;4.57;;;;;;;-1.38;100.00;94543.75;1026066;28;20034;-72
2021/12/10 00:57:49;;;;;;;10.05;4.80;;;;;;;-1.39;100.00;94541.41;1027459;28;20023;-71
2021/12/10 00:58:20;;;;;;;12.23;5.30;;;;;;;-1.45;100.00;94536.13;1030561;28;20048;-73
2021/12/10 00:58:50;;;;;;;7.82;4.53;;;;;;;-1.49;100.00;94523.91;1035840;28;20060;-72
2021/12/10 00:59:21;;;;;;;10.80;4.90;;;;;;;-1.43;100.00;94535.91;1028552;28;20171;-72
2021/12/10 00:59:51;;;;;;;7.70;5.47;;;;;;;-1.44;100.00;94536.94;1033294;28;20021;-73
2021/12/10 01:00:31;;;;;;;10.70;5.15;;;;;;;-1.46;100.00;94531.97;1028521;28;20014;-73
2021/12/10 01:01:04;;;;;;;8.80;4.72;;;;;;;-1.53;100.00;94526.13;1028501;28;20074;-74
2021/12/10 01:01:35;;;;;;;8.00;4.64;;;;;;;-1.50;100.00;94530.06;1032273;28;20516;-71
2021/12/10 01:02:07;;;;;;;6.78;4.55;;;;;;;-1.47;100.00;94529.63;1034705;28;20022;-72
2021/12/10 01:02:38;;;;;;;12.24;5.66;;;;;;;-1.49;100.00;94536.78;1038562;28;20021;-73
2021/12/10 01:03:10;;;;;;;10.32;4.72;;;;;;;-1.55;100.00;94522.22;1035861;28;20487;-72
2021/12/10 01:03:48;;;;;;;6.64;4.24;;;;;;;-1.50;100.00;94524.94;1028388;28;20105;-72
2021/12/10 01:04:21;;;;;;;11.00;4.92;;;;;;;-1.52;100.00;94526.91;1021794;29;20020;-72
2021/12/10 01:04:55;;;;;;;11.92;4.80;;;;;;;-1.48;100.00;94525.47;1028645;28;20023;-71
2021/12/10 01:05:25;;;;;;;7.22;5.20;;;;;;;-1.51;100.00;94521.56;1034496;28;20022;-73
2021/12/10 01:06:00;;;;;;;14.05;4.90;;;;;;;-1.50;100.00;94524.94;1034457;28;20022;-70
2021/12/10 01:06:31;;;;;;;8.42;4.60;;;;;;;-1.52;100.00;94526.91;1030556;28;20052;-72
2021/12/10 01:07:04;;;;;;;8.35;3.92;;;;;;;-1.57;100.00;94513.94;1030367;28;20100;-72
2021/12/10 01:07:35;;;;;;;8.84;4.84;;;;;;;-1.54;100.00;94526.34;1030732;28;20355;-73
2021/12/10 01:08:05;;;;;;;8.63;5.00;;;;;;;-1.54;100.00;94524.59;1022562;29;20102;-72
2021/12/10 01:08:38;;;;;;;8.38;4.47;;;;;;;-1.58;100.00;94518.28;1022235;28;20645;-72
2021/12/10 01:09:24;;;;;;;10.04;4.70;;;;;;;-1.58;100.00;94518.28;1020107;28;20080;-69
2021/12/10 01:09:56;;;;;;;14.70;4.86;;;;;;;-1.58;100.00;94512.34;1023286;28;20019;-72
2021/12/10 01:10:30;;;;;;;9.16;4.28;;;;;;;-1.65;100.00;94512.44;1028430;28;20015;-72
2021/12/10 01:11:14;;;;;;;10.72;5.00;;;;;;;-1.62;100.00;94512.00;1030646;28;20055;-73
2021/12/10 01:12:12;;;;;;;9.98;4.42;;;;;;;-1.61;100.00;94513.59;1030456;28;20014;-73
2021/12/10 01:12:45;;;;;;;8.98;4.22;;;;;;;-1.62;100.00;94519.72;1026359;28;20026;-75
2021/12/10 01:13:18;;;;;;;8.24;4.78;;;;;;;-1.63;100.00;94523.28;1022530;29;20019;-73
2021/12/10 01:13:52;;;;;;;9.84;5.02;;;;;;;-1.68;100.00;94513.69;1024271;28;20027;-71
2021/12/10 01:14:36;;;;;;;6.36;4.00;;;;;;;-1.64;100.00;94521.75;1028776;28;20666;-73
2021/12/10 01:23:54;;;;;;;11.26;4.94;;;;;;;-1.92;100.00;94488.81;1028949;28;20237;-72
2021/12/10 01:24:38;;;;;;;;;;;;;;;-1.89;100.00;94493.53;1022467;28;20018;-73
2021/12/10 01:25:23;;;;;;;9.85;4.93;;;;;;;-2.00;100.00;94482.19;1031537;28;20375;-72
2021/12/10 01:26:09;;;;;;;12.64;4.28;;;;;;;-1.99;100.00;94485.56;1026263;28;20753;-70
2021/12/10 01:27:33;;;;;;;7.68;4.75;;;;;;;-2.07;100.00;94480.72;1026598;28;20029;-72
2021/12/10 01:28:04;;;;;;;9.82;4.13;;;;;;;-2.02;100.00;94485.97;1033960;28;20131;-71
2021/12/10 01:28:36;;;;;;;7.42;4.74;;;;;;;-2.08;100.00;94482.47;1030184;28;20030;-72
2021/12/10 01:29:08;;;;;;;10.88;4.50;;;;;;;-2.03;100.00;94484.41;1026178;28;20037;-73
2021/12/10 01:29:41;;;;;;;8.40;4.03;;;;;;;-2.05;100.00;94487.19;1031461;28;20550;-71
2021/12/10 01:30:16;;;;;;;9.90;4.14;;;;;;;-2.02;100.00;94489.31;1026296;28;20033;-72
2021/12/10 01:30:47;;;;;;;11.40;4.70;;;;;;;-2.03;100.00;94486.97;1022254;28;20533;-72
2021/12/10 01:31:17;;;;;;;7.53;4.43;;;;;;;-2.01;100.00;94484.97;1022389;29;20082;-72
2021/12/10 01:31:48;;;;;;;8.27;4.15;;;;;;;-2.00;100.00;94473.72;1023143;28;20038;-72
2021/12/10 01:32:18;;;;;;;9.45;4.38;;;;;;;-1.95;100.00;94484.13;1033879;28;20018;-74
2021/12/10 01:32:54;;;;;;;11.60;4.20;;;;;;;-1.96;100.00;94485.13;1037139;28;20017;-72
2021/12/10 01:33:25;;;;;;;7.54;3.76;;;;;;;-2.07;100.00;94471.22;1029878;28;20010;-74
2021/12/10 01:33:58;;;;;;;13.50;5.18;;;;;;;-1.99;100.00;94485.56;1021201;29;20023;-73
2021/12/10 01:34:28;;;;;;;6.88;4.20;;;;;;;-2.01;100.00;94485.78;1022730;28;20023;-71
2021/12/10 01:34:59;;;;;;;9.60;4.75;;;;;;;-2.01;100.00;94487.53;1022548;28;20078;-72
2021/12/10 01:35:41;;;;;;;8.30;4.78;;;;;;;-2.02;100.00;94480.84;1030532;28;20041;-72
2021/12/10 01:36:11;;;;;;;8.44;3.82;;;;;;;-1.98;100.00;94477.63;1030387;28;20040;-72
2021/12/10 01:36:42;;;;;;;13.80;4.07;;;;;;;-2.01;100.00;94477.25;1027646;28;20073;-71
2021/12/10 01:37:12;;;;;;;9.93;4.57;;;;;;;-2.02;100.00;94476.47;1026453;28;20066;-73
2021/12/10 01:37:43;;;;;;;9.43;5.43;;;;;;;-2.00;100.00;94473.72;1022550;28;20470;-73
2021/12/10 01:38:14;;;;;;;8.60;4.20;;;;;;;-2.03;100.00;94466.44;1026504;28;20189;-72
2021/12/10 01:38:45;;;;;;;11.00;4.20;;;;;;;-2.08;100.00;94453.44;1030517;28;20023;-72
2021/12/10 01:39:23;;;;;;;9.06;3.94;;;;;;;-2.07;100.00;94462.72;1034352;28;20034;-71
2021/12/10 01:39:54;;;;;;;6.88;3.70;;;;;;;-2.06;100.00;94466.84;1026320;28;20023;-72
2021/12/10 01:40:26;;;;;;;7.07;3.90;;;;;;;-2.14;100.00;94452.53;1022290;29;20027;-72
2021/12/10 01:40:59;;;;;;;7.36;3.88;;;;;;;-2.06;100.00;94459.16;1018651;28;20027;-75
2021/12/10 01:41:34;;;;;;;6.20;3.76;;;;;;;-2.15;100.00;94449.16;1021511;28;20035;-72
2021/12/10 01:42:15;;;;;;;9.16;4.16;;;;;;;-2.08;100.00;94466.28;1027674;28;20029;-72
2021/12/10 01:42:49;;;;;;;8.04;4.12;;;;;;;-2.13;100.00;94449.72;1032161;28;20018;-72
2021/12/10 01:43:23;;;;;;;7.22;3.80;;;;;;;-2.07;100.00;94462.72;1030411;28;20015;-72
2021/12/10 01:44:02;;;;;;;13.22;4.42;;;;;;;-2.17;100.00;94443.44;1033585;28;20021;-71
2021/12/10 01:44:36;;;;;;;9.48;4.05;;;;;;;-2.14;100.00;94458.44;1025396;28;20031;-72
2021/12/10 01:45:18;;;;;;;8.92;4.12;;;;;;;-2.10;100.00;94453.66;1024337;28;20110;-72
2021/12/10 01:46:05;;;;;;;10.55;4.03;;;;;;;-2.12;100.00;94447.94;1022217;29;20019;-72
2021/12/10 01:46:38;;;;;;;5.82;3.94;;;;;;;-2.17;100.00;94452.94;1028329;28;20135;-72
2021/12/10 01:47:09;;;;;;;9.52;4.72;;;;;;;-2.20;100.00;94445.66;1026378;28;20748;-73
2021/12/10 01:47:39;;;;;;;8.63;4.38;;;;;;;-2.18;100.00;94456.50;1026092;28;20019;-72
2021/12/10 01:48:11;;;;;;;14.02;4.57;;;;;;;-2.22;100.00;94448.44;1025679;28;20031;-71
2021/12/10 01:48:48;;;;;;;7.75;4.40;;;;;;;-2.22;100.00;94442.50;1034586;28;20061;-71
2021/12/10 01:49:21;;;;;;;10.04;4.42;;;;;;;-2.29;100.00;94427.19;1034514;28;20053;-72
2021/12/10 01:49:52;;;;;;;11.25;4.20;;;;;;;-2.21;100.00;94436.41;1034316;28;20101;-72
2021/12/10 01:50:25;;;;;;;11.02;4.32;;;;;;;-2.25;100.00;94438.59;1026438;28;20033;-71
2021/12/10 01:50:56;;;;;;;7.47;3.85;;;;;;;-2.21;100.00;94434.59;1027364;28;20034;-71
2021/12/10 01:51:30;;;;;;;6.54;4.40;;;;;;;-2.19;100.00;94434.38;1018815;28;20024;-71
2021/12/10 01:52:00;;;;;;;8.90;4.54;;;;;;;-2.28;100.00;94417.69;1024229;28;20063;-73
2021/12/10 01:52:33;;;;;;;7.20;3.85;;;;;;;-2.25;100.00;94433.44;1022393;29;20050;-73
2021/12/10 01:53:09;;;;;;;12.42;4.22;;;;;;;-2.25;100.00;94433.44;1022972;28;20047;-73
2021/12/10 01:53:43;;;;;;;7.20;3.92;;;;;;;-2.28;100.00;94422.81;1026478;28;20023;-72
2021/12/10 01:54:20;;;;;;;7.80;4.50;;;;;;;-2.31;100.00;94416.34;1024760;28;20102;-72
2021/12/10 01:54:53;;;;;;;8.96;4.44;;;;;;;-2.39;100.00;94408.91;1025798;28;20460;-71
2021/12/10 01:55:23;;;;;;;8.98;4.06;;;;;;;-2.38;100.00;94410.50;1022028;29;20027;-71
2021/12/10 01:55:56;;;;;;;5.70;4.00;;;;;;;-2.37;100.00;94415.41;1024422;28;20409;-72
2021/12/10 01:56:29;;;;;;;7.50;4.10;;;;;;;-2.34;100.00;94421.13;1025544;28;20031;-72
2021/12/10 01:57:02;;;;;;;10.32;4.14;;;;;;;-2.33;100.00;94417.56;1027536;28;20136;-71
2021/12/10 01:57:34;;;;;;;9.76;4.52;;;;;;;-2.31;100.00;94418.91;1026470;28;20026;-72
2021/12/10 01:58:06;;;;;;;13.04;4.76;;;;;;;-2.34;100.00;94416.78;1019725;29;20028;-74
2021/12/10 01:58:37;;;;;;;8.60;4.47;;;;;;;-2.37;100.00;94417.97;1022898;29;20516;-72
2021/12/10 01:59:10;;;;;;;11.70;4.90;;;;;;;-2.54;100.00;94400.81;1027227;28;20023;-72
2021/12/10 01:59:41;;;;;;;9.38;4.00;;;;;;;-2.43;100.00;94420.63;1018343;29;20015;-73
2021/12/10 02:00:11;;;;;;;9.32;4.28;;;;;;;-2.47;100.00;94406.66;1021850;28;20039;-74
2021/12/10 02:00:44;;;;;;;8.90;4.50;;;;;;;-2.49;100.00;94416.34;1030688;28;20821;-72
2021/12/10 02:01:17;;;;;;;7.04;4.00;;;;;;;-2.54;100.00;94400.81;1023948;28;20047;-71
2021/12/10 02:01:53;;;;;;;8.43;4.43;;;;;;;-2.44;100.00;94406.22;1023900;28;20012;-71
2021/12/10 02:02:34;;;;;;;9.70;4.47;;;;;;;-2.56;100.00;94400.22;1027075;28;20023;-71
2021/12/10 02:03:04;;;;;;;;;;;;;;;-2.53;100.00;94404.94;1031247;28;20038;-71
2021/12/10 02:03:34;;;;;;;9.70;4.57;;;;;;;-2.61;100.00;94396.50;1026960;28;19946;-72
2021/12/10 02:04:05;;;;;;;6.88;4.03;;;;;;;-2.54;100.00;94398.22;1031053;28;20015;-72
2021/12/10 02:04:36;;;;;;;7.93;3.83;;;;;;;-2.63;100.00;94390.81;1026594;28;20025;-73
2021/12/10 02:05:07;;;;;;;10.15;4.68;;;;;;;-2.63;100.00;94393.38;1027427;28;20025;-72
2021/12/10 02:05:37;;;;;;;8.67;4.10;;;;;;;-2.53;100.00;94402.38;1031043;28;20503;-72
2021/12/10 02:06:08;;;;;;;7.37;4.27;;;;;;;-2.62;100.00;94389.81;1031296;28;20014;-71
2021/12/10 02:06:39;;;;;;;7.87;4.23;;;;;;;-2.58;100.00;94395.31;1033108;28;20045;-72
2021/12/10 02:07:11;;;;;;;9.03;4.20;;;;;;;-2.64;100.00;94386.66;1022903;28;20481;-72
2021/12/10 02:07:41;;;;;;;12.80;4.85;;;;;;;-2.54;100.00;94398.22;1018977;29;20075;-72
2021/12/10 02:08:12;;;;;;;6.93;3.77;;;;;;;-2.55;100.00;94394.06;1022927;28;20046;-72
2021/12/10 02:08:43;;;;;;;12.43;4.37;;;;;;;-2.64;100.00;94388.47;1024836;28;20074;-73
2021/12/10 02:09:14;;;;;;;8.47;4.30;;;;;;;-2.58;100.00;94395.31;1031191;28;20038;-73
2021/12/10 02:09:44;;;;;;;8.88;4.22;;;;;;;-2.63;100.00;94390.81;1027138;28;20038;-71
2021/12/10 02:10:18;;;;;;;7.47;4.27;;;;;;;-2.56;100.00;94392.50;1026591;28;20031;-72
2021/12/10 02:10:48;;;;;;;8.98;4.00;;;;;;;-2.59;100.00;94385.25;1031172;28;20026;-72
2021/12/10 02:11:19;;;;;;;9.63;4.33;;;;;;;-2.63;100.00;94385.66;1031570;28;20451;-72
2021/12/10 02:11:50;;;;;;;11.57;4.30;;;;;;;-2.62;100.00;94386.44;1028275;28;20624;-72
2021/12/10 02:12:20;;;;;;;10.05;4.30;;;;;;;-2.65;100.00;94379.97;1030855;28;20538;-72
2021/12/10 02:12:51;;;;;;;9.00;3.73;;;;;;;-2.68;100.00;94370.13;1031047;28;20148;-72
2021/12/10 02:13:21;;;;;;;12.63;4.80;;;;;;;-2.63;100.00;94383.09;1035455;28;20046;-72
2021/12/10 02:13:52;;;;;;;12.23;4.00;;;;;;;-2.69;100.00;94375.47;1038786;28;20025;-72
2021/12/10 02:14:22;;;;;;;9.67;3.77;;;;;;;-2.63;100.00;94380.53;1035209;28;20037;-72
2021/12/10 02:15:01;;;;;;;8.47;3.77;;;;;;;-2.64;100.00;94380.75;1030784;28;20038;-72
2021/12/10 02:15:32;;;;;;;5.82;3.78;;;;;;;-2.68;100.00;94375.25;1030877;28;20077;-72
2021/12/10 02:16:03;;;;;;;8.87;4.03;;;;;;;-2.67;100.00;94376.81;1031305;28;20035;-72
2021/12/10 02:16:36;;;;;;;7.45;3.58;;;;;;;-2.67;100.00;94378.63;1028335;28;20492;-73
2021/12/10 02:17:06;;;;;;;12.40;4.45;;;;;;;-2.69;100.00;94370.34;1021240;28;20036;-72
2021/12/10 02:17:44;;;;;;;9.75;4.00;;;;;;;-2.67;100.00;94374.25;1027902;28;20135;-72
2021/12/10 02:18:16;;;;;;;5.97;3.40;;;;;;;-2.66;100.00;94375.03;1031054;28;20038;-73
2021/12/10 02:18:48;;;;;;;11.92;3.80;;;;;;;-2.65;100.00;94371.47;1025393;28;20555;-73
2021/12/10 02:19:19;;;;;;;7.90;4.13;;;;;;;-2.63;100.00;94369.47;1022960;29;20024;-71
2021/12/10 02:19:52;;;;;;;10.20;3.80;;;;;;;-2.65;100.00;94359.44;1020673;29;20082;-72
2021/12/10 02:20:45;;;;;;;7.90;3.60;;;;;;;-2.68;100.00;94365.00;1019365;28;20067;-70
2021/12/10 02:21:18;;;;;;;9.80;3.42;;;;;;;-2.71;100.00;94354.38;1025443;28;20101;-72
2021/12/10 02:21:49;;;;;;;9.02;4.13;;;;;;;-2.67;100.00;94355.50;1026294;28;20031;-72
2021/12/10 02:22:19;;;;;;;8.97;3.73;;;;;;;-2.71;100.00;94360.28;1027192;28;20034;-73
2021/12/10 02:22:51;;;;;;;7.70;3.70;;;;;;;-2.72;100.00;94360.50;1030931;28;20018;-71
2021/12/10 02:23:22;;;;;;;8.80;3.70;;;;;;;-2.79;100.00;94347.72;1031521;28;20664;-73
2021/12/10 02:23:57;;;;;;;6.18;3.33;;;;;;;-2.79;100.00;94336.69;1030970;28;20481;-71
2021/12/10 02:24:27;;;;;;;6.63;3.40;;;;;;;-2.80;100.00;94347.94;1026775;28;20065;-73
2021/12/10 02:24:57;;;;;;;7.50;3.80;;;;;;;-2.74;100.00;94352.22;1026221;28;20074;-73
2021/12/10 02:25:29;;;;;;;8.77;3.97;;;;;;;-2.72;100.00;94353.56;1030662;28;20073;-73
2021/12/10 02:26:01;;;;;;;6.65;3.80;;;;;;;-2.79;100.00;94334.88;1026665;28;20121;-73
2021/12/10 02:26:35;;;;;;;7.10;3.63;;;;;;;-2.78;100.00;94351.06;1022964;29;20504;-73
2021/12/10 02:27:06;;;;;;;4.13;3.20;;;;;;;-2.72;100.00;94351.00;1034821;28;20400;-73
2021/12/10 02:27:37;;;;;;;8.20;3.33;;;;;;;-2.73;100.00;94349.44;1034073;28;20041;-73
2021/12/10 02:28:08;;;;;;;5.83;3.47;;;;;;;-2.76;100.00;94349.09;1026679;28;20154;-74
2021/12/10 02:28:39;;;;;;;5.90;3.30;;;;;;;-2.74;100.00;94345.31;1030123;28;20018;-73
2021/12/10 02:29:12;;;;;;;11.60;3.63;;;;;;;-2.74;100.00;94347.09;1026930;28;20105;-75
2021/12/10 02:29:43;;;;;;;11.95;4.25;;;;;;;-2.75;100.00;94350.66;1026937;28;20022;-72
2021/12/10 02:30:14;;;;;;;12.13;4.17;;;;;;;-2.82;100.00;94348.16;1022416;29;20027;-72
2021/12/10 02:30:45;;;;;;;7.25;4.28;;;;;;;-2.81;100.00;94349.72;1020288;28;20027;-72
2021/12/10 02:31:15;;;;;;;9.90;3.90;;;;;;;-2.86;100.00;94337.53;1026821;28;20073;-72
2021/12/10 02:31:46;;;;;;;9.03;4.30;;;;;;;-2.78;100.00;94349.31;1026875;28;20065;-72
2021/12/10 02:32:17;;;;;;;9.33;4.50;;;;;;;-2.83;100.00;94345.81;1028675;28;20030;-72
2021/12/10 02:32:47;;;;;;;10.37;3.83;;;;;;;-2.82;100.00;94350.72;1030861;28;20092;-73
2021/12/10 02:33:18;;;;;;;8.40;4.10;;;;;;;-2.82;100.00;94343.00;1030699;28;20189;-72
2021/12/10 02:33:48;;;;;;;8.80;4.00;;;;;;;-2.88;100.00;94338.75;1026983;28;20031;-72
2021/12/10 02:34:20;;;;;;;8.23;4.13;;;;;;;-2.90;100.00;94338.97;1023020;28;20027;-73
2021/12/10 02:34:53;;;;;;;7.57;3.60;;;;;;;-2.81;100.00;94334.34;1026074;28;20061;-73
2021/12/10 02:35:23;;;;;;;7.65;3.92;;;;;;;-2.81;100.00;94336.91;1022827;29;20031;-72
2021/12/10 02:35:54;;;;;;;10.73;3.67;;;;;;;-2.86;100.00;94329.81;1022969;29;20031;-73
2021/12/10 02:36:24;;;;;;;8.57;3.97;;;;;;;-2.90;100.00;94328.69;1030691;28;20025;-73
2021/12/10 02:36:55;;;;;;;8.60;3.63;;;;;;;-2.80;100.00;94337.69;1030861;28;20031;-73
2021/12/10 02:37:26;;;;;;;10.87;4.20;;;;;;;-2.82;100.00;94335.31;1026947;28;20605;-71
2021/12/10 02:37:56;;;;;;;9.07;4.57;;;;;;;-2.84;100.00;94342.47;1026904;28;20262;-74
2021/12/10 02:38:27;;;;;;;8.10;4.07;;;;;;;-2.88;100.00;94344.66;1026728;28;20093;-75
2021/12/10 02:38:57;;;;;;;7.20;3.60;;;;;;;-2.86;100.00;94341.88;1026989;28;20669;-72
2021/12/10 02:39:28;;;;;;;6.80;4.47;;;;;;;-2.91;100.00;94331.47;1027050;28;20022;-70
2021/12/10 02:39:58;;;;;;;12.47;3.97;;;;;;;-2.88;100.00;94338.75;1030720;28;20080;-73
2021/12/10 02:40:29;;;;;;;14.50;4.93;;;;;;;-2.87;100.00;94341.09;1031204;28;20026;-72
2021/12/10 02:41:00;;;;;;;8.60;4.03;;;;;;;-2.91;100.00;94339.19;1030891;28;20520;-72
2021/12/10 02:41:30;;;;;;;7.57;3.73;;;;;;;-2.93;100.00;94326.56;1030515;28;20021;-71
2021/12/10 02:42:01;;;;;;;8.17;4.80;;;;;;;-2.87;100.00;94335.97;1027176;28;20594;-72
2021/12/10 02:42:31;;;;;;;8.17;4.07;;;;;;;-2.90;100.00;94331.25;1026879;28;20199;-72
2021/12/10 02:43:05;;;;;;;6.93;4.00;;;;;;;-2.88;100.00;94334.41;1026900;28;20113;-73
2021/12/10 02:43:36;;;;;;;11.05;4.20;;;;;;;-2.89;100.00;94330.25;1022802;28;20488;-72